sensor_id;sensor_type;location;lat;lon;timestamp;temperature;humidity
19214;DHT22;9741;51.020;5.304;2023-02-28T00:00:11;0.80;49.00
19214;DHT22;9741;51.020;5.304;2023-02-28T00:02:40;0.80;49.00
19214;DHT22;9741;51.020;5.304;2023-02-28T00:05:08;0.80;49.00
19214;DHT22;9741;51.020;5.304;2023-02-28T00:07:36;0.80;49.00
19214;DHT22;9741;51.020;5.304;2023-02-28T00:10:05;0.80;49.10
19214;DHT22;9741;51.020;5.304;2023-02-28T00:12:34;0.70;49.00
19214;DHT22;9741;51.020;5.304;2023-02-28T00:15:02;0.80;49.20
19214;DHT22;9741;51.020;5.304;2023-02-28T00:17:29;0.70;49.10
19214;DHT22;9741;51.020;5.304;2023-02-28T00:19:56;0.70;49.10
19214;DHT22;9741;51.020;5.304;2023-02-28T00:22:27;0.60;49.10
19214;DHT22;9741;51.020;5.304;2023-02-28T00:24:54;0.60;49.10
19214;DHT22;9741;51.020;5.304;2023-02-28T00:27:21;0.60;49.10
19214;DHT22;9741;51.020;5.304;2023-02-28T00:29:50;0.50;49.10
19214;DHT22;9741;51.020;5.304;2023-02-28T00:32:17;0.50;49.20
19214;DHT22;9741;51.020;5.304;2023-02-28T00:34:44;0.50;49.20
19214;DHT22;9741;51.020;5.304;2023-02-28T00:37:12;0.50;49.20
19214;DHT22;9741;51.020;5.304;2023-02-28T00:39:40;0.50;49.30
19214;DHT22;9741;51.020;5.304;2023-02-28T00:42:07;0.40;49.20
19214;DHT22;9741;51.020;5.304;2023-02-28T00:44:34;0.40;49.20
19214;DHT22;9741;51.020;5.304;2023-02-28T00:47:03;0.30;49.20
19214;DHT22;9741;51.020;5.304;2023-02-28T00:49:30;0.30;49.20
19214;DHT22;9741;51.020;5.304;2023-02-28T00:51:57;0.20;49.20
19214;DHT22;9741;51.020;5.304;2023-02-28T00:54:24;0.20;49.30
19214;DHT22;9741;51.020;5.304;2023-02-28T00:56:51;0.20;49.30
19214;DHT22;9741;51.020;5.304;2023-02-28T00:59:19;0.10;49.30
19214;DHT22;9741;51.020;5.304;2023-02-28T01:01:47;0.10;49.30
19214;DHT22;9741;51.020;5.304;2023-02-28T01:04:15;0.00;49.20
19214;DHT22;9741;51.020;5.304;2023-02-28T01:06:42;-0.10;49.10
19214;DHT22;9741;51.020;5.304;2023-02-28T01:09:10;-0.20;49.10
19214;DHT22;9741;51.020;5.304;2023-02-28T01:11:37;-0.30;49.10
19214;DHT22;9741;51.020;5.304;2023-02-28T01:14:06;-0.30;49.20
19214;DHT22;9741;51.020;5.304;2023-02-28T01:16:33;-0.40;49.10
19214;DHT22;9741;51.020;5.304;2023-02-28T01:19:00;-0.60;49.00
19214;DHT22;9741;51.020;5.304;2023-02-28T01:21:28;-0.60;49.10
19214;DHT22;9741;51.020;5.304;2023-02-28T01:23:57;-0.70;49.20
19214;DHT22;9741;51.020;5.304;2023-02-28T01:26:24;-0.70;49.40
19214;DHT22;9741;51.020;5.304;2023-02-28T01:28:53;-0.60;49.60
19214;DHT22;9741;51.020;5.304;2023-02-28T01:31:20;-0.60;49.60
19214;DHT22;9741;51.020;5.304;2023-02-28T01:33:48;-0.60;49.60
19214;DHT22;9741;51.020;5.304;2023-02-28T01:36:18;-0.60;49.60
19214;DHT22;9741;51.020;5.304;2023-02-28T01:38:47;-0.50;49.80
19214;DHT22;9741;51.020;5.304;2023-02-28T01:41:17;-0.50;49.80
19214;DHT22;9741;51.020;5.304;2023-02-28T01:43:57;-0.40;49.90
19214;DHT22;9741;51.020;5.304;2023-02-28T01:46:24;-0.40;49.90
19214;DHT22;9741;51.020;5.304;2023-02-28T01:48:54;-0.40;49.80
19214;DHT22;9741;51.020;5.304;2023-02-28T01:51:28;-0.40;49.90
19214;DHT22;9741;51.020;5.304;2023-02-28T01:54:02;-0.40;50.00
19214;DHT22;9741;51.020;5.304;2023-02-28T01:56:33;-0.30;50.10
19214;DHT22;9741;51.020;5.304;2023-02-28T01:59:02;-0.30;50.10
19214;DHT22;9741;51.020;5.304;2023-02-28T02:01:31;-0.30;50.10
19214;DHT22;9741;51.020;5.304;2023-02-28T02:04:00;-0.30;50.10
19214;DHT22;9741;51.020;5.304;2023-02-28T02:06:29;-0.30;50.10
19214;DHT22;9741;51.020;5.304;2023-02-28T02:08:58;-0.30;50.10
19214;DHT22;9741;51.020;5.304;2023-02-28T02:11:26;-0.30;50.10
19214;DHT22;9741;51.020;5.304;2023-02-28T02:14:18;-0.40;50.20
19214;DHT22;9741;51.020;5.304;2023-02-28T02:17:00;-0.30;50.30
19214;DHT22;9741;51.020;5.304;2023-02-28T02:25:32;-0.50;50.20
19214;DHT22;9741;51.020;5.304;2023-02-28T02:34:12;-0.80;50.10
19214;DHT22;9741;51.020;5.304;2023-02-28T02:36:48;-0.90;50.10
19214;DHT22;9741;51.020;5.304;2023-02-28T02:39:22;-1.00;50.10
19214;DHT22;9741;51.020;5.304;2023-02-28T02:41:53;-1.10;50.10
19214;DHT22;9741;51.020;5.304;2023-02-28T02:44:22;-1.10;50.20
19214;DHT22;9741;51.020;5.304;2023-02-28T02:46:54;-1.20;50.20
19214;DHT22;9741;51.020;5.304;2023-02-28T02:49:26;-1.20;50.20
19214;DHT22;9741;51.020;5.304;2023-02-28T02:51:55;-1.20;50.20
19214;DHT22;9741;51.020;5.304;2023-02-28T02:54:28;-1.30;50.80
19214;DHT22;9741;51.020;5.304;2023-02-28T02:56:57;-1.30;50.20
19214;DHT22;9741;51.020;5.304;2023-02-28T02:59:27;-1.30;50.20
19214;DHT22;9741;51.020;5.304;2023-02-28T03:01:56;-1.40;50.20
19214;DHT22;9741;51.020;5.304;2023-02-28T03:04:28;-1.50;50.10
19214;DHT22;9741;51.020;5.304;2023-02-28T03:06:57;-1.50;50.20
19214;DHT22;9741;51.020;5.304;2023-02-28T03:09:25;-1.60;50.10
19214;DHT22;9741;51.020;5.304;2023-02-28T03:11:55;-1.60;50.20
19214;DHT22;9741;51.020;5.304;2023-02-28T03:20:15;-1.50;50.50
19214;DHT22;9741;51.020;5.304;2023-02-28T03:22:56;-1.50;50.60
19214;DHT22;9741;51.020;5.304;2023-02-28T03:25:33;-1.50;50.60
19214;DHT22;9741;51.020;5.304;2023-02-28T03:28:06;-1.40;50.70
19214;DHT22;9741;51.020;5.304;2023-02-28T03:30:40;-1.40;50.70
19214;DHT22;9741;51.020;5.304;2023-02-28T03:33:11;-1.40;50.80
19214;DHT22;9741;51.020;5.304;2023-02-28T03:35:43;-1.30;51.00
19214;DHT22;9741;51.020;5.304;2023-02-28T03:38:15;-1.20;51.10
19214;DHT22;9741;51.020;5.304;2023-02-28T03:40:49;-1.00;51.30
19214;DHT22;9741;51.020;5.304;2023-02-28T03:43:21;-0.90;51.20
19214;DHT22;9741;51.020;5.304;2023-02-28T03:45:51;-0.80;51.20
19214;DHT22;9741;51.020;5.304;2023-02-28T03:48:22;-0.60;51.30
19214;DHT22;9741;51.020;5.304;2023-02-28T03:50:54;-0.50;51.20
19214;DHT22;9741;51.020;5.304;2023-02-28T03:53:25;-0.30;51.30
19214;DHT22;9741;51.020;5.304;2023-02-28T03:55:56;-0.20;51.50
19214;DHT22;9741;51.020;5.304;2023-02-28T03:58:30;-0.10;51.30
19214;DHT22;9741;51.020;5.304;2023-02-28T04:01:04;0.00;51.40
19214;DHT22;9741;51.020;5.304;2023-02-28T04:03:36;0.10;51.40
19214;DHT22;9741;51.020;5.304;2023-02-28T04:06:07;0.20;51.40
19214;DHT22;9741;51.020;5.304;2023-02-28T04:08:35;0.30;51.40
19214;DHT22;9741;51.020;5.304;2023-02-28T04:11:05;0.40;51.50
19214;DHT22;9741;51.020;5.304;2023-02-28T04:13:33;0.40;51.50
19214;DHT22;9741;51.020;5.304;2023-02-28T04:16:00;0.40;51.50
19214;DHT22;9741;51.020;5.304;2023-02-28T04:18:27;0.50;51.60
19214;DHT22;9741;51.020;5.304;2023-02-28T04:20:54;0.50;51.60
19214;DHT22;9741;51.020;5.304;2023-02-28T04:23:23;0.50;51.60
19214;DHT22;9741;51.020;5.304;2023-02-28T04:25:50;0.50;51.70
19214;DHT22;9741;51.020;5.304;2023-02-28T04:28:17;0.40;51.60
19214;DHT22;9741;51.020;5.304;2023-02-28T04:30:44;0.40;51.70
19214;DHT22;9741;51.020;5.304;2023-02-28T04:33:11;0.40;51.70
19214;DHT22;9741;51.020;5.304;2023-02-28T04:35:38;0.30;51.60
19214;DHT22;9741;51.020;5.304;2023-02-28T04:38:05;0.30;51.70
19214;DHT22;9741;51.020;5.304;2023-02-28T04:40:33;0.20;51.70
19214;DHT22;9741;51.020;5.304;2023-02-28T04:43:00;0.20;51.70
19214;DHT22;9741;51.020;5.304;2023-02-28T04:45:28;0.10;51.70
19214;DHT22;9741;51.020;5.304;2023-02-28T04:47:57;0.10;51.70
19214;DHT22;9741;51.020;5.304;2023-02-28T04:50:24;0.10;51.90
19214;DHT22;9741;51.020;5.304;2023-02-28T04:52:51;0.00;51.80
19214;DHT22;9741;51.020;5.304;2023-02-28T04:55:18;0.00;51.80
19214;DHT22;9741;51.020;5.304;2023-02-28T04:57:47;0.00;51.80
19214;DHT22;9741;51.020;5.304;2023-02-28T05:00:14;-0.10;51.90
19214;DHT22;9741;51.020;5.304;2023-02-28T05:02:42;-0.10;51.90
19214;DHT22;9741;51.020;5.304;2023-02-28T05:05:09;-0.10;51.90
19214;DHT22;9741;51.020;5.304;2023-02-28T05:07:37;-0.20;51.80
19214;DHT22;9741;51.020;5.304;2023-02-28T05:10:05;-0.20;51.80
19214;DHT22;9741;51.020;5.304;2023-02-28T05:12:32;-0.30;51.70
19214;DHT22;9741;51.020;5.304;2023-02-28T05:15:00;-0.40;51.60
19214;DHT22;9741;51.020;5.304;2023-02-28T05:17:28;-0.60;51.40
19214;DHT22;9741;51.020;5.304;2023-02-28T05:19:55;-0.70;51.50
19214;DHT22;9741;51.020;5.304;2023-02-28T05:22:22;-0.80;51.50
19214;DHT22;9741;51.020;5.304;2023-02-28T05:24:49;-0.90;51.70
19214;DHT22;9741;51.020;5.304;2023-02-28T05:27:16;-1.00;51.60
19214;DHT22;9741;51.020;5.304;2023-02-28T05:29:43;-1.10;51.60
19214;DHT22;9741;51.020;5.304;2023-02-28T05:32:13;-1.10;51.60
19214;DHT22;9741;51.020;5.304;2023-02-28T05:34:41;-1.20;51.50
19214;DHT22;9741;51.020;5.304;2023-02-28T05:37:11;-1.30;51.50
19214;DHT22;9741;51.020;5.304;2023-02-28T05:39:39;-1.30;51.70
19214;DHT22;9741;51.020;5.304;2023-02-28T05:42:06;-1.30;51.80
19214;DHT22;9741;51.020;5.304;2023-02-28T05:44:35;-1.30;51.90
19214;DHT22;9741;51.020;5.304;2023-02-28T05:47:02;-1.30;52.40
19214;DHT22;9741;51.020;5.304;2023-02-28T05:49:30;-1.30;51.90
19214;DHT22;9741;51.020;5.304;2023-02-28T05:51:57;-1.30;51.80
19214;DHT22;9741;51.020;5.304;2023-02-28T05:54:25;-1.30;51.70
19214;DHT22;9741;51.020;5.304;2023-02-28T05:56:51;-1.40;51.60
19214;DHT22;9741;51.020;5.304;2023-02-28T05:59:18;-1.50;51.40
19214;DHT22;9741;51.020;5.304;2023-02-28T06:01:45;-1.60;51.40
19214;DHT22;9741;51.020;5.304;2023-02-28T06:04:16;-1.70;51.30
19214;DHT22;9741;51.020;5.304;2023-02-28T06:06:46;-1.80;51.40
19214;DHT22;9741;51.020;5.304;2023-02-28T06:09:13;-1.90;51.50
19214;DHT22;9741;51.020;5.304;2023-02-28T06:11:41;-2.00;51.60
19214;DHT22;9741;51.020;5.304;2023-02-28T06:14:14;-2.00;51.70
19214;DHT22;9741;51.020;5.304;2023-02-28T06:16:41;-2.00;51.80
19214;DHT22;9741;51.020;5.304;2023-02-28T06:22:01;-2.00;51.80
19214;DHT22;9741;51.020;5.304;2023-02-28T06:24:28;-2.00;51.90
19214;DHT22;9741;51.020;5.304;2023-02-28T06:26:57;-2.00;51.90
19214;DHT22;9741;51.020;5.304;2023-02-28T06:29:30;-2.00;51.90
19214;DHT22;9741;51.020;5.304;2023-02-28T06:31:57;-2.00;51.80
19214;DHT22;9741;51.020;5.304;2023-02-28T06:34:24;-2.00;51.80
19214;DHT22;9741;51.020;5.304;2023-02-28T06:36:51;-2.00;51.80
19214;DHT22;9741;51.020;5.304;2023-02-28T06:39:20;-2.00;52.00
19214;DHT22;9741;51.020;5.304;2023-02-28T06:41:47;-2.00;52.00
19214;DHT22;9741;51.020;5.304;2023-02-28T06:44:17;-2.00;52.00
19214;DHT22;9741;51.020;5.304;2023-02-28T06:46:45;-2.00;52.10
19214;DHT22;9741;51.020;5.304;2023-02-28T06:52:33;-1.90;52.30
19214;DHT22;9741;51.020;5.304;2023-02-28T06:55:03;-1.70;52.40
19214;DHT22;9741;51.020;5.304;2023-02-28T06:57:31;-1.70;52.50
19214;DHT22;9741;51.020;5.304;2023-02-28T06:59:59;-1.60;52.60
19214;DHT22;9741;51.020;5.304;2023-02-28T07:02:27;-1.50;52.70
19214;DHT22;9741;51.020;5.304;2023-02-28T07:04:54;-1.40;52.70
19214;DHT22;9741;51.020;5.304;2023-02-28T07:07:21;-1.30;52.70
19214;DHT22;9741;51.020;5.304;2023-02-28T07:09:48;-1.20;52.70
19214;DHT22;9741;51.020;5.304;2023-02-28T07:12:17;-1.10;52.80
19214;DHT22;9741;51.020;5.304;2023-02-28T07:14:44;-1.10;52.70
19214;DHT22;9741;51.020;5.304;2023-02-28T07:17:11;-1.00;53.40
19214;DHT22;9741;51.020;5.304;2023-02-28T07:19:38;-0.90;52.80
19214;DHT22;9741;51.020;5.304;2023-02-28T07:22:05;-0.80;53.00
19214;DHT22;9741;51.020;5.304;2023-02-28T07:24:32;-0.80;52.90
19214;DHT22;9741;51.020;5.304;2023-02-28T07:26:59;-0.70;53.00
19214;DHT22;9741;51.020;5.304;2023-02-28T07:29:28;-0.60;53.00
19214;DHT22;9741;51.020;5.304;2023-02-28T07:31:55;-0.50;53.00
19214;DHT22;9741;51.020;5.304;2023-02-28T07:34:23;-0.40;53.10
19214;DHT22;9741;51.020;5.304;2023-02-28T07:36:53;-0.30;53.20
19214;DHT22;9741;51.020;5.304;2023-02-28T07:39:20;-0.30;53.10
19214;DHT22;9741;51.020;5.304;2023-02-28T07:41:48;-0.20;53.10
19214;DHT22;9741;51.020;5.304;2023-02-28T07:44:15;-0.10;53.20
19214;DHT22;9741;51.020;5.304;2023-02-28T07:46:43;0.00;53.20
19214;DHT22;9741;51.020;5.304;2023-02-28T07:49:10;0.10;53.20
19214;DHT22;9741;51.020;5.304;2023-02-28T07:51:37;0.20;53.20
19214;DHT22;9741;51.020;5.304;2023-02-28T07:54:05;0.30;53.20
19214;DHT22;9741;51.020;5.304;2023-02-28T07:56:32;0.30;53.10
19214;DHT22;9741;51.020;5.304;2023-02-28T07:58:59;0.40;53.10
19214;DHT22;9741;51.020;5.304;2023-02-28T08:01:27;0.50;53.10
19214;DHT22;9741;51.020;5.304;2023-02-28T08:03:58;0.60;53.10
19214;DHT22;9741;51.020;5.304;2023-02-28T08:06:26;0.60;53.10
19214;DHT22;9741;51.020;5.304;2023-02-28T08:08:53;0.70;53.10
19214;DHT22;9741;51.020;5.304;2023-02-28T08:11:21;0.80;53.10
19214;DHT22;9741;51.020;5.304;2023-02-28T08:13:48;0.90;53.10
19214;DHT22;9741;51.020;5.304;2023-02-28T08:16:16;0.90;52.90
19214;DHT22;9741;51.020;5.304;2023-02-28T08:18:47;1.00;52.90
19214;DHT22;9741;51.020;5.304;2023-02-28T08:21:16;1.10;52.90
19214;DHT22;9741;51.020;5.304;2023-02-28T08:23:43;1.10;52.70
19214;DHT22;9741;51.020;5.304;2023-02-28T08:26:10;1.20;52.70
19214;DHT22;9741;51.020;5.304;2023-02-28T08:28:37;1.30;52.60
19214;DHT22;9741;51.020;5.304;2023-02-28T08:31:08;1.40;52.50
19214;DHT22;9741;51.020;5.304;2023-02-28T08:33:35;1.40;52.30
19214;DHT22;9741;51.020;5.304;2023-02-28T08:36:05;1.50;52.30
19214;DHT22;9741;51.020;5.304;2023-02-28T08:38:34;1.60;52.20
19214;DHT22;9741;51.020;5.304;2023-02-28T08:41:03;1.70;52.00
19214;DHT22;9741;51.020;5.304;2023-02-28T08:43:32;1.80;52.00
19214;DHT22;9741;51.020;5.304;2023-02-28T08:46:00;1.80;51.80
19214;DHT22;9741;51.020;5.304;2023-02-28T08:48:31;1.90;51.70
19214;DHT22;9741;51.020;5.304;2023-02-28T08:50:59;2.00;51.70
19214;DHT22;9741;51.020;5.304;2023-02-28T08:53:27;2.00;51.50
19214;DHT22;9741;51.020;5.304;2023-02-28T08:56:00;2.10;51.40
19214;DHT22;9741;51.020;5.304;2023-02-28T08:58:28;2.20;51.30
19214;DHT22;9741;51.020;5.304;2023-02-28T09:00:55;2.20;51.00
19214;DHT22;9741;51.020;5.304;2023-02-28T09:03:24;2.30;50.90
19214;DHT22;9741;51.020;5.304;2023-02-28T09:05:54;2.40;50.90
19214;DHT22;9741;51.020;5.304;2023-02-28T09:08:22;2.40;50.60
19214;DHT22;9741;51.020;5.304;2023-02-28T09:10:49;2.50;50.40
19214;DHT22;9741;51.020;5.304;2023-02-28T09:13:18;2.60;50.20
19214;DHT22;9741;51.020;5.304;2023-02-28T09:15:45;2.70;50.10
19214;DHT22;9741;51.020;5.304;2023-02-28T09:18:12;2.70;50.00
19214;DHT22;9741;51.020;5.304;2023-02-28T09:20:40;2.80;49.70
19214;DHT22;9741;51.020;5.304;2023-02-28T09:23:07;2.90;49.50
19214;DHT22;9741;51.020;5.304;2023-02-28T09:25:35;2.90;49.20
19214;DHT22;9741;51.020;5.304;2023-02-28T09:28:02;3.00;49.10
19214;DHT22;9741;51.020;5.304;2023-02-28T09:30:31;3.10;48.90
19214;DHT22;9741;51.020;5.304;2023-02-28T09:32:58;3.10;48.50
19214;DHT22;9741;51.020;5.304;2023-02-28T09:35:25;3.20;48.40
19214;DHT22;9741;51.020;5.304;2023-02-28T09:37:53;3.30;48.10
19214;DHT22;9741;51.020;5.304;2023-02-28T09:40:22;3.30;48.00
19214;DHT22;9741;51.020;5.304;2023-02-28T09:42:52;3.40;47.80
19214;DHT22;9741;51.020;5.304;2023-02-28T09:45:24;3.50;47.60
19214;DHT22;9741;51.020;5.304;2023-02-28T09:47:55;3.60;47.40
19214;DHT22;9741;51.020;5.304;2023-02-28T09:50:30;3.60;47.30
19214;DHT22;9741;51.020;5.304;2023-02-28T09:52:59;3.70;47.10
19214;DHT22;9741;51.020;5.304;2023-02-28T09:55:31;3.80;47.10
19214;DHT22;9741;51.020;5.304;2023-02-28T09:58:00;3.80;46.70
19214;DHT22;9741;51.020;5.304;2023-02-28T10:00:33;3.80;46.40
19214;DHT22;9741;51.020;5.304;2023-02-28T10:03:28;3.90;46.30
19214;DHT22;9741;51.020;5.304;2023-02-28T10:05:59;4.00;46.00
19214;DHT22;9741;51.020;5.304;2023-02-28T10:08:32;4.10;45.50
19214;DHT22;9741;51.020;5.304;2023-02-28T10:11:02;4.10;44.90
19214;DHT22;9741;51.020;5.304;2023-02-28T10:13:34;4.20;44.60
19214;DHT22;9741;51.020;5.304;2023-02-28T10:16:03;4.30;44.40
19214;DHT22;9741;51.020;5.304;2023-02-28T10:18:40;4.30;44.00
19214;DHT22;9741;51.020;5.304;2023-02-28T10:21:17;4.40;43.60
19214;DHT22;9741;51.020;5.304;2023-02-28T10:23:46;4.40;43.20
19214;DHT22;9741;51.020;5.304;2023-02-28T10:26:17;4.40;42.80
19214;DHT22;9741;51.020;5.304;2023-02-28T10:28:44;4.50;42.40
19214;DHT22;9741;51.020;5.304;2023-02-28T10:31:15;4.50;42.10
19214;DHT22;9741;51.020;5.304;2023-02-28T10:33:45;4.50;41.80
19214;DHT22;9741;51.020;5.304;2023-02-28T10:36:15;4.60;41.50
19214;DHT22;9741;51.020;5.304;2023-02-28T10:38:44;4.60;41.50
19214;DHT22;9741;51.020;5.304;2023-02-28T10:41:13;4.70;41.40
19214;DHT22;9741;51.020;5.304;2023-02-28T10:43:42;4.70;41.10
19214;DHT22;9741;51.020;5.304;2023-02-28T10:46:13;4.70;40.70
19214;DHT22;9741;51.020;5.304;2023-02-28T10:49:01;4.80;40.50
19214;DHT22;9741;51.020;5.304;2023-02-28T10:51:36;4.90;40.40
19214;DHT22;9741;51.020;5.304;2023-02-28T10:54:04;4.90;40.30
19214;DHT22;9741;51.020;5.304;2023-02-28T10:56:32;5.00;40.40
19214;DHT22;9741;51.020;5.304;2023-02-28T10:59:00;5.00;40.20
19214;DHT22;9741;51.020;5.304;2023-02-28T11:01:37;5.00;40.00
19214;DHT22;9741;51.020;5.304;2023-02-28T11:04:17;5.10;39.90
19214;DHT22;9741;51.020;5.304;2023-02-28T11:06:45;5.10;39.60
19214;DHT22;9741;51.020;5.304;2023-02-28T11:09:20;5.10;39.40
19214;DHT22;9741;51.020;5.304;2023-02-28T11:11:49;5.20;39.10
19214;DHT22;9741;51.020;5.304;2023-02-28T11:14:20;5.20;38.70
19214;DHT22;9741;51.020;5.304;2023-02-28T11:16:48;5.20;38.60
19214;DHT22;9741;51.020;5.304;2023-02-28T11:19:20;5.20;38.50
19214;DHT22;9741;51.020;5.304;2023-02-28T11:21:53;5.20;38.40
19214;DHT22;9741;51.020;5.304;2023-02-28T11:24:24;5.30;38.40
19214;DHT22;9741;51.020;5.304;2023-02-28T11:26:52;5.30;38.30
19214;DHT22;9741;51.020;5.304;2023-02-28T11:29:22;5.40;38.00
19214;DHT22;9741;51.020;5.304;2023-02-28T11:32:12;5.40;37.90
19214;DHT22;9741;51.020;5.304;2023-02-28T11:34:41;5.50;37.90
19214;DHT22;9741;51.020;5.304;2023-02-28T11:37:12;5.50;37.80
19214;DHT22;9741;51.020;5.304;2023-02-28T11:39:40;5.60;37.40
19214;DHT22;9741;51.020;5.304;2023-02-28T11:42:24;5.60;37.20
19214;DHT22;9741;51.020;5.304;2023-02-28T11:45:03;5.70;37.00
19214;DHT22;9741;51.020;5.304;2023-02-28T11:47:41;5.70;36.90
19214;DHT22;9741;51.020;5.304;2023-02-28T11:50:37;5.70;36.80
19214;DHT22;9741;51.020;5.304;2023-02-28T11:53:16;5.80;36.60
19214;DHT22;9741;51.020;5.304;2023-02-28T11:55:50;5.80;36.50
19214;DHT22;9741;51.020;5.304;2023-02-28T11:58:29;5.80;36.50
19214;DHT22;9741;51.020;5.304;2023-02-28T12:01:15;5.80;36.50
19214;DHT22;9741;51.020;5.304;2023-02-28T12:03:58;5.90;36.50
19214;DHT22;9741;51.020;5.304;2023-02-28T12:06:32;5.90;36.40
19214;DHT22;9741;51.020;5.304;2023-02-28T12:09:13;5.90;36.20
19214;DHT22;9741;51.020;5.304;2023-02-28T12:11:52;5.90;36.00
19214;DHT22;9741;51.020;5.304;2023-02-28T12:14:58;6.00;36.10
19214;DHT22;9741;51.020;5.304;2023-02-28T12:17:38;6.00;36.00
19214;DHT22;9741;51.020;5.304;2023-02-28T12:20:17;6.10;35.80
19214;DHT22;9741;51.020;5.304;2023-02-28T12:22:55;6.10;35.60
19214;DHT22;9741;51.020;5.304;2023-02-28T12:25:42;6.10;35.40
19214;DHT22;9741;51.020;5.304;2023-02-28T12:28:15;6.10;35.50
19214;DHT22;9741;51.020;5.304;2023-02-28T12:30:49;6.10;35.50
19214;DHT22;9741;51.020;5.304;2023-02-28T12:33:20;6.20;35.60
19214;DHT22;9741;51.020;5.304;2023-02-28T12:35:52;6.20;35.50
19214;DHT22;9741;51.020;5.304;2023-02-28T12:38:25;6.20;35.30
19214;DHT22;9741;51.020;5.304;2023-02-28T12:40:56;6.20;35.00
19214;DHT22;9741;51.020;5.304;2023-02-28T12:43:30;6.20;35.00
19214;DHT22;9741;51.020;5.304;2023-02-28T12:46:02;6.20;34.90
19214;DHT22;9741;51.020;5.304;2023-02-28T12:48:40;6.20;34.70
19214;DHT22;9741;51.020;5.304;2023-02-28T12:51:09;6.20;34.80
19214;DHT22;9741;51.020;5.304;2023-02-28T12:53:49;6.20;34.70
19214;DHT22;9741;51.020;5.304;2023-02-28T12:56:21;6.30;34.70
19214;DHT22;9741;51.020;5.304;2023-02-28T12:58:57;6.30;34.60
19214;DHT22;9741;51.020;5.304;2023-02-28T13:01:41;6.30;34.70
19214;DHT22;9741;51.020;5.304;2023-02-28T13:04:40;6.40;34.80
19214;DHT22;9741;51.020;5.304;2023-02-28T13:10:13;6.50;34.60
19214;DHT22;9741;51.020;5.304;2023-02-28T13:12:48;6.50;34.60
19214;DHT22;9741;51.020;5.304;2023-02-28T13:15:19;6.50;34.60
19214;DHT22;9741;51.020;5.304;2023-02-28T13:17:51;6.50;34.60
19214;DHT22;9741;51.020;5.304;2023-02-28T13:20:20;6.50;34.30
19214;DHT22;9741;51.020;5.304;2023-02-28T13:22:49;6.40;34.00
19214;DHT22;9741;51.020;5.304;2023-02-28T13:34:40;6.40;34.30
19214;DHT22;9741;51.020;5.304;2023-02-28T13:37:35;6.40;34.40
19214;DHT22;9741;51.020;5.304;2023-02-28T13:40:29;6.40;34.20
19214;DHT22;9741;51.020;5.304;2023-02-28T13:43:02;6.40;34.10
19214;DHT22;9741;51.020;5.304;2023-02-28T13:45:30;6.40;34.20
19214;DHT22;9741;51.020;5.304;2023-02-28T13:48:15;6.40;34.30
19214;DHT22;9741;51.020;5.304;2023-02-28T13:50:43;6.40;34.20
19214;DHT22;9741;51.020;5.304;2023-02-28T13:53:34;6.40;34.20
19214;DHT22;9741;51.020;5.304;2023-02-28T13:56:18;6.40;34.30
19214;DHT22;9741;51.020;5.304;2023-02-28T13:58:54;6.40;34.90
19214;DHT22;9741;51.020;5.304;2023-02-28T14:01:41;6.40;34.30
19214;DHT22;9741;51.020;5.304;2023-02-28T14:07:21;6.40;34.20
19214;DHT22;9741;51.020;5.304;2023-02-28T14:09:56;6.40;34.30
19214;DHT22;9741;51.020;5.304;2023-02-28T14:12:53;6.50;34.40
19214;DHT22;9741;51.020;5.304;2023-02-28T14:18:19;6.50;34.50
19214;DHT22;9741;51.020;5.304;2023-02-28T14:20:51;6.50;34.60
19214;DHT22;9741;51.020;5.304;2023-02-28T14:26:25;6.50;34.60
19214;DHT22;9741;51.020;5.304;2023-02-28T14:29:09;6.50;34.40
19214;DHT22;9741;51.020;5.304;2023-02-28T14:31:40;6.50;34.40
19214;DHT22;9741;51.020;5.304;2023-02-28T14:34:22;6.50;34.50
19214;DHT22;9741;51.020;5.304;2023-02-28T14:36:53;6.40;34.40
19214;DHT22;9741;51.020;5.304;2023-02-28T14:39:23;6.50;34.50
19214;DHT22;9741;51.020;5.304;2023-02-28T14:41:51;6.50;34.40
19214;DHT22;9741;51.020;5.304;2023-02-28T14:44:21;6.40;34.10
19214;DHT22;9741;51.020;5.304;2023-02-28T14:46:50;6.50;34.20
19214;DHT22;9741;51.020;5.304;2023-02-28T14:49:20;6.50;34.20
19214;DHT22;9741;51.020;5.304;2023-02-28T14:51:49;6.50;34.10
19214;DHT22;9741;51.020;5.304;2023-02-28T14:54:22;6.50;34.10
19214;DHT22;9741;51.020;5.304;2023-02-28T14:56:50;6.50;34.00
19214;DHT22;9741;51.020;5.304;2023-02-28T14:59:25;6.50;33.90
19214;DHT22;9741;51.020;5.304;2023-02-28T15:04:34;6.40;33.60
19214;DHT22;9741;51.020;5.304;2023-02-28T15:07:08;6.40;33.70
19214;DHT22;9741;51.020;5.304;2023-02-28T15:09:36;6.40;33.70
19214;DHT22;9741;51.020;5.304;2023-02-28T15:12:03;6.40;33.80
19214;DHT22;9741;51.020;5.304;2023-02-28T15:14:31;6.40;33.70
19214;DHT22;9741;51.020;5.304;2023-02-28T15:17:02;6.40;33.80
19214;DHT22;9741;51.020;5.304;2023-02-28T15:19:34;6.30;33.70
19214;DHT22;9741;51.020;5.304;2023-02-28T15:22:04;6.30;33.70
19214;DHT22;9741;51.020;5.304;2023-02-28T15:24:38;6.40;33.90
19214;DHT22;9741;51.020;5.304;2023-02-28T15:27:10;6.30;33.70
19214;DHT22;9741;51.020;5.304;2023-02-28T15:29:44;6.40;34.00
19214;DHT22;9741;51.020;5.304;2023-02-28T15:32:24;6.40;34.00
19214;DHT22;9741;51.020;5.304;2023-02-28T15:34:52;6.40;34.00
19214;DHT22;9741;51.020;5.304;2023-02-28T15:37:37;6.30;34.00
19214;DHT22;9741;51.020;5.304;2023-02-28T15:40:13;6.30;34.00
19214;DHT22;9741;51.020;5.304;2023-02-28T15:42:40;6.30;34.00
19214;DHT22;9741;51.020;5.304;2023-02-28T15:45:27;6.30;34.00
19214;DHT22;9741;51.020;5.304;2023-02-28T15:47:55;6.30;34.00
19214;DHT22;9741;51.020;5.304;2023-02-28T15:50:22;6.20;33.90
19214;DHT22;9741;51.020;5.304;2023-02-28T15:52:50;6.20;33.90
19214;DHT22;9741;51.020;5.304;2023-02-28T15:55:20;6.20;34.50
19214;DHT22;9741;51.020;5.304;2023-02-28T15:57:50;6.20;33.90
19214;DHT22;9741;51.020;5.304;2023-02-28T16:00:20;6.10;33.80
19214;DHT22;9741;51.020;5.304;2023-02-28T16:02:49;6.10;33.90
19214;DHT22;9741;51.020;5.304;2023-02-28T16:05:22;6.10;33.90
19214;DHT22;9741;51.020;5.304;2023-02-28T16:07:54;6.10;33.80
19214;DHT22;9741;51.020;5.304;2023-02-28T16:10:24;6.10;33.80
19214;DHT22;9741;51.020;5.304;2023-02-28T16:12:53;6.00;33.80
19214;DHT22;9741;51.020;5.304;2023-02-28T16:15:23;6.00;33.80
19214;DHT22;9741;51.020;5.304;2023-02-28T16:17:50;6.00;33.90
19214;DHT22;9741;51.020;5.304;2023-02-28T16:20:19;5.90;33.90
19214;DHT22;9741;51.020;5.304;2023-02-28T16:22:46;5.90;33.90
19214;DHT22;9741;51.020;5.304;2023-02-28T16:25:14;5.90;34.00
19214;DHT22;9741;51.020;5.304;2023-02-28T16:27:45;5.80;34.00
19214;DHT22;9741;51.020;5.304;2023-02-28T16:30:19;5.80;34.10
19214;DHT22;9741;51.020;5.304;2023-02-28T16:32:46;5.80;34.20
19214;DHT22;9741;51.020;5.304;2023-02-28T16:35:14;5.70;34.10
19214;DHT22;9741;51.020;5.304;2023-02-28T16:37:41;5.70;34.20
19214;DHT22;9741;51.020;5.304;2023-02-28T16:40:14;5.70;34.30
19214;DHT22;9741;51.020;5.304;2023-02-28T16:42:43;5.60;34.40
19214;DHT22;9741;51.020;5.304;2023-02-28T16:45:16;5.60;34.40
19214;DHT22;9741;51.020;5.304;2023-02-28T16:47:45;5.50;34.40
19214;DHT22;9741;51.020;5.304;2023-02-28T16:50:15;5.50;34.50
19214;DHT22;9741;51.020;5.304;2023-02-28T16:52:42;5.40;34.50
19214;DHT22;9741;51.020;5.304;2023-02-28T16:55:09;5.40;34.70
19214;DHT22;9741;51.020;5.304;2023-02-28T16:57:36;5.40;34.80
19214;DHT22;9741;51.020;5.304;2023-02-28T17:00:06;5.30;34.90
19214;DHT22;9741;51.020;5.304;2023-02-28T17:02:34;5.20;34.90
19214;DHT22;9741;51.020;5.304;2023-02-28T17:05:02;5.10;34.90
19214;DHT22;9741;51.020;5.304;2023-02-28T17:07:30;5.10;35.10